メインページ
METAR-TAF:

METAR-TAF

空港 :

アンマン, ヨルダン

緯度: 31-59N, 経度: 035-59E, 海抜: 767m

現時点の気象観測

当レポートは24分前の06:00(UTC)に作成
西の風 10kt
気温 11°C
湿度 82%
気圧 1020 hPa
視程: 4000m
高度3000ftの雲は散在している
煙霧

METAR: OJAM 140600Z 27010KT 4000 HZ SCT030 11/08 Q1020 NOSIG

時間: 08:24 (06:24 UTC)

予報

当レポートは1時間34分前の04:50(UTC)に作成
予報は14日の 06時(UTC)から 15日の 12時(UTC)まで有効
西/南西の風 10kt
視程: 5000m
高度3000ftの雲は散在している
煙霧
14日の 18時(UTC)から 14日の 20時(UTC)まで徐々に
西/北西の風 6kt
視程: 6000m
高度3000ftの雲はほとんどない

TAF: OJAM 140450Z 1406/1512 25010KT 5000 HZ SCT030 BECMG 1418/1420 30006KT 6000 FEW030

4,000以上の空港の気象観測と天気予報(METAR報とTAF報)

利用可能な観測所は地図上に黄色い丸と赤い丸で示す。

丸の上にカーソルを重ねると観測所名を参照できる。

次にクリックすると気象観測と天気予報を参照できる。

マップの切り替え:黒色「×」印の緑ボタンをクリックして拡大、「-」印の緑ボタンをクリックして縮小、緑色の三角印をクリックして隣りの地図に切り替え


METAR-TAF: